createdAt,value
2018-06-08T00:01:36.232Z,87.60
2018-06-08T00:04:05.559Z,86.30
2018-06-08T00:06:34.814Z,86.40
2018-06-08T00:09:05.143Z,86.20
2018-06-08T00:11:34.384Z,86.30
2018-06-08T00:14:03.573Z,84.80
2018-06-08T00:16:32.882Z,85.20
2018-06-08T00:19:02.267Z,85.40
2018-06-08T00:21:31.310Z,84.70
2018-06-08T00:24:00.521Z,84.60
2018-06-08T00:26:29.863Z,84.90
2018-06-08T00:28:59.183Z,84.90
2018-06-08T00:31:28.470Z,85.40
2018-06-08T00:33:57.837Z,85.60
2018-06-08T00:36:27.061Z,85.80
2018-06-08T00:38:56.594Z,86.10
2018-06-08T00:41:25.570Z,86.70
2018-06-08T00:43:54.752Z,87.20
2018-06-08T00:46:23.965Z,86.90
2018-06-08T00:48:53.200Z,87.50
2018-06-08T00:51:22.383Z,87.50
2018-06-08T00:53:51.574Z,87.80
2018-06-08T00:56:31.654Z,87.90
2018-06-08T00:59:00.854Z,87.80
2018-06-08T01:01:30.254Z,87.80
2018-06-08T01:03:59.542Z,87.90
2018-06-08T01:08:57.292Z,88.90
2018-06-08T01:11:26.662Z,88.50
2018-06-08T01:13:55.918Z,88.30
2018-06-08T01:16:25.174Z,88.70
2018-06-08T01:18:54.426Z,88.60
2018-06-08T01:21:23.602Z,88.30
2018-06-08T01:23:52.865Z,88.50
2018-06-08T01:26:21.834Z,88.30
2018-06-08T01:28:51.134Z,88.20
2018-06-08T01:31:20.490Z,88.80
2018-06-08T01:33:49.857Z,88.70
2018-06-08T01:36:19.199Z,88.70
2018-06-08T01:38:48.561Z,89.70
2018-06-08T01:41:17.807Z,89.40
2018-06-08T01:43:47.223Z,89.10
2018-06-08T01:46:16.506Z,89.20
2018-06-08T01:48:45.819Z,89.40
2018-06-08T01:51:15.126Z,89.90
2018-06-08T01:53:44.393Z,89.90
2018-06-08T01:56:13.702Z,90.20
2018-06-08T01:58:42.935Z,90.10
2018-06-08T02:01:12.074Z,90.30
2018-06-08T02:03:41.502Z,90.20
2018-06-08T02:06:10.703Z,90.40
2018-06-08T02:08:40.135Z,91.70
2018-06-08T02:11:09.234Z,91.10
2018-06-08T02:13:38.530Z,90.80
2018-06-08T02:16:07.914Z,90.70
2018-06-08T02:18:37.205Z,90.70
2018-06-08T02:21:06.429Z,90.80
2018-06-08T02:23:35.506Z,90.90
2018-06-08T02:26:04.853Z,90.90
2018-06-08T02:28:34.071Z,90.70
2018-06-08T02:31:03.394Z,90.70
2018-06-08T02:33:32.934Z,90.70
2018-06-08T02:36:02.180Z,90.80
2018-06-08T02:38:31.421Z,91.30
2018-06-08T02:41:00.743Z,91.80
2018-06-08T02:43:29.822Z,90.80
2018-06-08T02:45:59.211Z,90.50
2018-06-08T02:48:28.367Z,90.80
2018-06-08T02:50:57.579Z,90.60
2018-06-08T02:53:26.548Z,90.60
2018-06-08T02:55:55.791Z,90.70
2018-06-08T02:58:25.107Z,90.70
2018-06-08T03:00:54.270Z,90.60
2018-06-08T03:03:23.413Z,90.80
2018-06-08T03:05:52.683Z,90.60
2018-06-08T03:08:21.928Z,90.70
2018-06-08T03:10:51.140Z,91.00
2018-06-08T03:13:20.378Z,90.90
2018-06-08T03:15:49.903Z,91.00
2018-06-08T03:18:19.282Z,91.20
2018-06-08T03:20:48.467Z,91.20
2018-06-08T03:23:17.594Z,91.10
2018-06-08T03:25:46.650Z,91.10
2018-06-08T03:28:15.934Z,91.10
2018-06-08T03:30:45.161Z,91.00
2018-06-08T03:33:14.420Z,91.10
2018-06-08T03:35:43.435Z,91.30
2018-06-08T03:38:12.678Z,91.30
2018-06-08T03:43:10.489Z,91.90
2018-06-08T03:45:39.743Z,91.30
2018-06-08T03:48:08.997Z,91.20
2018-06-08T03:50:38.225Z,91.60
2018-06-08T03:53:07.457Z,91.70
2018-06-08T03:55:36.746Z,91.20
2018-06-08T03:58:05.968Z,91.00
2018-06-08T04:00:35.162Z,91.20
2018-06-08T04:03:04.253Z,90.90
2018-06-08T04:05:33.538Z,91.00
2018-06-08T04:08:02.772Z,91.40
2018-06-08T04:10:32.117Z,91.10
2018-06-08T04:13:01.324Z,90.80
2018-06-08T04:15:30.539Z,91.00
2018-06-08T04:18:02.562Z,91.10
2018-06-08T04:20:31.775Z,91.10
2018-06-08T04:23:01.113Z,91.00
2018-06-08T04:25:30.147Z,91.70
2018-06-08T04:27:59.479Z,91.50
2018-06-08T04:30:28.777Z,91.60
2018-06-08T04:32:58.124Z,91.80
2018-06-08T04:35:27.273Z,91.10
2018-06-08T04:37:57.256Z,90.40
2018-06-08T04:40:26.571Z,90.70
2018-06-08T04:42:55.776Z,90.30
2018-06-08T04:45:25.018Z,90.40
2018-06-08T04:47:54.226Z,90.70
2018-06-08T04:50:23.367Z,90.50
2018-06-08T04:52:52.517Z,90.50
2018-06-08T04:55:21.845Z,90.30
2018-06-08T04:57:51.198Z,90.00
2018-06-08T05:00:20.489Z,90.00
2018-06-08T05:02:49.854Z,89.90
2018-06-08T05:05:19.198Z,89.40
2018-06-08T05:07:48.405Z,89.50
2018-06-08T05:10:17.626Z,90.60
2018-06-08T05:12:47.042Z,90.70
2018-06-08T05:15:17.894Z,89.60
2018-06-08T05:17:48.040Z,90.20
2018-06-08T05:20:18.310Z,90.90
2018-06-08T05:22:47.738Z,89.50
2018-06-08T05:25:17.291Z,90.10
2018-06-08T05:27:47.859Z,90.60
2018-06-08T05:30:19.669Z,90.20
2018-06-08T05:32:48.913Z,90.30
2018-06-08T05:35:18.171Z,90.10
2018-06-08T05:37:47.318Z,90.10
2018-06-08T05:40:16.696Z,90.50
2018-06-08T05:42:45.973Z,90.60
2018-06-08T05:45:15.221Z,90.50
2018-06-08T05:47:44.701Z,90.40
2018-06-08T05:50:13.962Z,90.70
2018-06-08T05:52:43.078Z,90.90
2018-06-08T05:55:13.027Z,92.00
2018-06-08T05:57:42.310Z,90.80
2018-06-08T06:00:11.614Z,90.70
2018-06-08T06:02:41.020Z,91.50
2018-06-08T06:05:10.607Z,90.50
2018-06-08T06:07:39.946Z,90.40
2018-06-08T06:10:09.135Z,91.00
2018-06-08T06:12:38.450Z,90.70
2018-06-08T06:15:07.811Z,90.60
2018-06-08T06:17:37.202Z,90.50
2018-06-08T06:20:08.514Z,90.30
2018-06-08T06:22:37.646Z,90.00
2018-06-08T06:25:06.954Z,90.10
2018-06-08T06:27:36.251Z,90.50
2018-06-08T06:30:06.194Z,90.20
2018-06-08T06:32:35.295Z,90.00
2018-06-08T06:35:04.552Z,90.50
2018-06-08T06:37:33.877Z,90.10
2018-06-08T06:40:03.143Z,90.10
2018-06-08T06:42:32.565Z,91.10
2018-06-08T06:45:02.613Z,90.10
2018-06-08T06:47:31.905Z,90.20
2018-06-08T06:50:31.727Z,90.00
2018-06-08T06:53:01.055Z,89.70
2018-06-08T06:55:30.295Z,89.60
2018-06-08T06:57:59.533Z,90.20
2018-06-08T07:00:28.544Z,89.60
2018-06-08T07:02:57.919Z,89.70
2018-06-08T07:05:27.687Z,90.40
2018-06-08T07:07:57.016Z,90.00
2018-06-08T07:10:26.244Z,90.00
2018-06-08T07:12:55.498Z,90.00
2018-06-08T07:15:24.688Z,90.40
2018-06-08T07:17:53.973Z,89.60
2018-06-08T07:20:23.554Z,90.10
2018-06-08T07:22:52.836Z,89.50
2018-06-08T07:25:22.218Z,88.70
2018-06-08T07:27:51.556Z,88.50
2018-06-08T07:30:21.470Z,89.60
2018-06-08T07:32:50.735Z,88.40
2018-06-08T07:35:19.937Z,89.40
2018-06-08T07:37:49.216Z,87.50
2018-06-08T07:40:18.560Z,88.60
2018-06-08T07:42:47.695Z,87.40
2018-06-08T07:45:17.088Z,87.40
2018-06-08T07:47:46.478Z,86.70
2018-06-08T07:50:15.792Z,86.20
2018-06-08T07:52:45.077Z,85.80
2018-06-08T07:55:14.217Z,86.00
2018-06-08T07:57:43.584Z,86.30
2018-06-08T08:00:12.791Z,86.10
2018-06-08T08:02:42.103Z,87.00
2018-06-08T08:05:11.250Z,85.50
2018-06-08T08:07:40.504Z,83.70
2018-06-08T08:10:09.914Z,82.10
2018-06-08T08:12:39.216Z,81.70
2018-06-08T08:15:08.356Z,81.20
2018-06-08T08:17:37.594Z,81.10
2018-06-08T08:20:06.883Z,79.60
2018-06-08T08:22:36.153Z,76.70
2018-06-08T08:25:05.401Z,75.00
2018-06-08T08:27:34.618Z,71.90
2018-06-08T08:30:03.958Z,71.10
2018-06-08T08:32:33.192Z,70.10
2018-06-08T08:35:02.404Z,69.00
2018-06-08T08:37:31.534Z,69.50
2018-06-08T08:40:00.646Z,69.20
2018-06-08T08:42:29.902Z,68.10
2018-06-08T08:44:59.342Z,67.50
2018-06-08T08:47:28.731Z,68.20
2018-06-08T08:49:57.926Z,68.30
2018-06-08T08:52:27.625Z,67.70
2018-06-08T08:54:56.926Z,66.10
2018-06-08T08:57:26.118Z,65.60
2018-06-08T08:59:55.416Z,65.20
2018-06-08T09:02:24.522Z,64.90
2018-06-08T09:04:53.711Z,64.70
2018-06-08T09:07:22.907Z,63.90
2018-06-08T09:09:53.244Z,63.90
2018-06-08T09:12:22.541Z,61.60
2018-06-08T09:14:51.833Z,59.60
2018-06-08T09:17:21.035Z,59.10
2018-06-08T09:19:50.373Z,59.20
2018-06-08T09:22:19.709Z,59.50
2018-06-08T09:24:48.968Z,58.80
2018-06-08T09:27:18.137Z,59.30
2018-06-08T09:29:47.375Z,59.10
2018-06-08T09:32:16.526Z,57.90
2018-06-08T09:34:45.686Z,57.20
2018-06-08T09:37:15.338Z,56.00
2018-06-08T09:39:44.652Z,54.20
2018-06-08T09:42:13.801Z,52.90
2018-06-08T09:44:43.244Z,52.50
2018-06-08T09:47:12.836Z,52.90
2018-06-08T09:49:42.162Z,54.10
2018-06-08T09:52:11.333Z,54.60
2018-06-08T09:54:40.637Z,56.00
2018-06-08T09:57:10.007Z,55.60
2018-06-08T09:59:39.297Z,55.00
2018-06-08T10:02:08.525Z,54.70
2018-06-08T10:04:38.122Z,54.40
2018-06-08T10:07:07.395Z,52.80
2018-06-08T10:09:36.716Z,53.10
2018-06-08T10:12:05.876Z,53.10
2018-06-08T10:14:35.213Z,53.80
2018-06-08T10:17:04.725Z,53.60
2018-06-08T10:19:33.973Z,54.40
2018-06-08T10:22:03.249Z,54.10
2018-06-08T10:24:32.486Z,54.00
2018-06-08T10:27:01.819Z,54.00
2018-06-08T10:29:31.138Z,53.50
2018-06-08T10:32:00.471Z,52.50
2018-06-08T10:34:29.626Z,51.80
2018-06-08T10:36:58.797Z,52.00
2018-06-08T10:39:28.120Z,51.70
2018-06-08T10:41:57.448Z,51.60
2018-06-08T10:46:55.526Z,51.00
2018-06-08T10:49:24.836Z,50.80
2018-06-08T10:51:53.985Z,50.30
2018-06-08T10:54:23.284Z,50.60
2018-06-08T10:56:52.516Z,50.60
2018-06-08T10:59:21.787Z,49.30
2018-06-08T11:01:51.044Z,48.80
2018-06-08T11:04:20.227Z,48.40
2018-06-08T11:06:49.492Z,47.90
2018-06-08T11:09:18.787Z,47.30
2018-06-08T11:11:48.206Z,47.00
2018-06-08T11:14:17.507Z,48.00
2018-06-08T11:16:46.750Z,47.70
2018-06-08T11:19:15.902Z,47.30
2018-06-08T11:21:45.198Z,45.80
2018-06-08T11:24:14.393Z,45.20
2018-06-08T11:26:43.622Z,44.20
2018-06-08T11:29:12.897Z,44.50
2018-06-08T11:31:42.208Z,45.10
2018-06-08T11:34:11.453Z,45.80
2018-06-08T11:36:41.059Z,46.20
2018-06-08T11:39:10.323Z,45.20
2018-06-08T11:41:39.638Z,45.10
2018-06-08T11:44:09.166Z,45.40
2018-06-08T11:46:38.479Z,45.50
2018-06-08T11:49:07.704Z,44.90
2018-06-08T11:51:36.919Z,44.60
2018-06-08T11:54:06.164Z,45.90
2018-06-08T11:56:35.408Z,45.60
2018-06-08T11:59:04.727Z,46.30
2018-06-08T12:01:33.905Z,46.20
2018-06-08T12:04:03.187Z,45.40
2018-06-08T12:06:32.471Z,45.60
2018-06-08T12:09:01.767Z,45.30
2018-06-08T12:11:31.050Z,45.60
2018-06-08T12:14:00.226Z,45.60
2018-06-08T12:16:29.532Z,46.00
2018-06-08T12:21:27.562Z,48.20
2018-06-08T12:23:56.683Z,48.90
2018-06-08T12:26:25.933Z,49.40
2018-06-08T12:28:55.094Z,49.40
2018-06-08T12:31:24.184Z,49.90
2018-06-08T12:33:53.345Z,49.20
2018-06-08T12:36:22.739Z,49.10
2018-06-08T12:38:52.026Z,48.30
2018-06-08T12:41:21.197Z,48.30
2018-06-08T12:43:50.427Z,48.30
2018-06-08T12:46:19.622Z,48.50
2018-06-08T12:48:48.898Z,49.00
2018-06-08T12:51:18.834Z,48.90
2018-06-08T12:53:48.095Z,48.50
2018-06-08T12:56:17.407Z,47.50
2018-06-08T12:58:46.682Z,47.60
2018-06-08T13:01:15.851Z,48.00
2018-06-08T13:03:45.164Z,48.30
2018-06-08T13:06:14.390Z,48.10
2018-06-08T13:08:43.736Z,49.00
2018-06-08T13:11:13.085Z,48.60
2018-06-08T13:13:42.218Z,48.60
2018-06-08T13:16:11.452Z,48.40
2018-06-08T13:18:40.743Z,48.40
2018-06-08T13:21:09.910Z,48.50
2018-06-08T13:23:39.156Z,47.90
2018-06-08T13:26:08.494Z,47.70
2018-06-08T13:28:37.724Z,48.00
2018-06-08T13:31:06.996Z,47.50
2018-06-08T13:33:36.435Z,47.70
2018-06-08T13:36:05.722Z,47.60
2018-06-08T13:38:34.985Z,47.60
2018-06-08T13:41:05.954Z,47.90
2018-06-08T13:43:36.381Z,47.60
2018-06-08T13:46:44.261Z,47.40
2018-06-08T13:49:13.668Z,47.00
2018-06-08T13:51:43.025Z,46.90
2018-06-08T13:54:12.258Z,46.80
2018-06-08T13:56:41.526Z,46.50
2018-06-08T13:59:10.784Z,46.40
2018-06-08T14:01:40.183Z,46.60
2018-06-08T14:04:09.440Z,47.20
2018-06-08T14:06:38.706Z,47.30
2018-06-08T14:09:14.832Z,47.20
2018-06-08T14:11:44.353Z,47.60
2018-06-08T14:14:13.600Z,47.60
2018-06-08T14:16:42.867Z,47.20
2018-06-08T14:19:12.138Z,47.10
2018-06-08T14:21:41.544Z,47.20
2018-06-08T14:24:10.760Z,47.20
2018-06-08T14:26:40.098Z,47.50
2018-06-08T14:29:09.357Z,47.80
2018-06-08T14:31:38.556Z,48.00
2018-06-08T14:34:07.844Z,48.30
2018-06-08T14:36:37.096Z,48.70
2018-06-08T14:39:08.619Z,50.40
2018-06-08T14:41:37.924Z,50.10
2018-06-08T14:44:07.192Z,49.90
2018-06-08T14:46:36.353Z,49.50
2018-06-08T14:49:05.532Z,49.50
2018-06-08T14:51:34.786Z,50.80
2018-06-08T14:54:03.971Z,52.20
2018-06-08T14:56:33.304Z,52.50
2018-06-08T14:59:03.590Z,53.10
2018-06-08T15:01:33.206Z,52.50
2018-06-08T15:04:02.336Z,52.80
2018-06-08T15:06:31.603Z,52.90
2018-06-08T15:09:00.841Z,53.00
2018-06-08T15:11:30.115Z,53.10
2018-06-08T15:13:59.304Z,53.20
2018-06-08T15:16:28.450Z,52.10
2018-06-08T15:18:57.544Z,51.90
2018-06-08T15:21:26.986Z,52.10
2018-06-08T15:23:56.275Z,52.50
2018-06-08T15:26:25.614Z,52.40
2018-06-08T15:28:54.758Z,52.80
2018-06-08T15:31:24.113Z,53.20
2018-06-08T15:33:53.387Z,53.20
2018-06-08T15:36:22.519Z,54.00
2018-06-08T15:38:52.018Z,53.50
2018-06-08T15:41:21.414Z,53.30
2018-06-08T15:43:50.608Z,53.30
2018-06-08T15:46:19.876Z,53.20
2018-06-08T15:48:49.802Z,53.10
2018-06-08T15:51:19.039Z,53.60
2018-06-08T15:53:48.271Z,53.50
2018-06-08T15:56:17.629Z,53.90
2018-06-08T15:58:46.991Z,54.20
2018-06-08T16:01:16.221Z,54.40
2018-06-08T16:03:45.419Z,54.30
2018-06-08T16:06:14.584Z,54.40
2018-06-08T16:08:43.967Z,54.20
2018-06-08T16:11:13.817Z,53.80
2018-06-08T16:13:43.156Z,53.80
2018-06-08T16:16:12.367Z,54.30
2018-06-08T16:18:41.594Z,54.40
2018-06-08T16:21:15.336Z,53.70
2018-06-08T16:23:44.495Z,53.60
2018-06-08T16:26:13.733Z,53.70
2018-06-08T16:28:42.951Z,53.40
2018-06-08T16:31:12.210Z,53.20
2018-06-08T16:33:41.511Z,53.40
2018-06-08T16:36:10.998Z,53.40
2018-06-08T16:38:40.218Z,54.40
2018-06-08T16:41:09.541Z,54.90
2018-06-08T16:43:38.938Z,55.20
2018-06-08T16:46:08.456Z,56.00
2018-06-08T16:48:40.082Z,55.70
2018-06-08T16:51:10.511Z,56.00
2018-06-08T16:53:40.203Z,56.10
2018-06-08T16:56:09.339Z,56.30
2018-06-08T16:58:38.644Z,56.50
2018-06-08T17:01:08.010Z,56.40
2018-06-08T17:03:37.236Z,56.60
2018-06-08T17:06:06.626Z,56.80
2018-06-08T17:08:35.922Z,57.20
2018-06-08T17:11:05.363Z,57.20
2018-06-08T17:13:34.626Z,57.40
2018-06-08T17:16:04.131Z,57.70
2018-06-08T17:18:34.617Z,57.90
2018-06-08T17:21:03.967Z,58.10
2018-06-08T17:23:33.212Z,58.10
2018-06-08T17:26:03.709Z,58.40
2018-06-08T17:28:33.312Z,58.60
2018-06-08T17:31:02.546Z,58.80
2018-06-08T17:33:37.018Z,59.00
2018-06-08T17:36:08.894Z,59.20
2018-06-08T17:38:41.558Z,59.30
2018-06-08T17:41:13.684Z,59.50
2018-06-08T17:43:45.682Z,59.60
2018-06-08T17:46:16.344Z,59.70
2018-06-08T17:48:50.903Z,59.60
2018-06-08T17:51:20.352Z,59.60
2018-06-08T17:53:50.015Z,59.80
2018-06-08T17:56:20.630Z,60.10
2018-06-08T17:58:50.123Z,60.20
2018-06-08T18:01:19.423Z,60.40
2018-06-08T18:03:48.794Z,60.50
2018-06-08T18:06:18.191Z,61.30
2018-06-08T18:08:48.254Z,60.70
2018-06-08T18:11:18.040Z,60.90
2018-06-08T18:13:47.530Z,61.10
2018-06-08T18:16:16.832Z,61.40
2018-06-08T18:18:46.653Z,61.70
2018-06-08T18:21:16.007Z,61.90
2018-06-08T18:23:45.852Z,62.20
2018-06-08T18:26:15.201Z,62.60
2018-06-08T18:28:44.608Z,63.50
2018-06-08T18:31:13.926Z,63.60
2018-06-08T18:33:43.271Z,63.10
2018-06-08T18:36:12.699Z,63.30
2018-06-08T18:38:42.018Z,63.40
2018-06-08T18:41:12.088Z,63.70
2018-06-08T18:43:41.466Z,63.90
2018-06-08T18:46:10.828Z,64.00
2018-06-08T18:48:40.111Z,64.10
2018-06-08T18:51:09.615Z,64.20
2018-06-08T18:53:41.124Z,64.30
2018-06-08T18:56:11.101Z,64.40
2018-06-08T18:58:44.674Z,64.40
2018-06-08T19:01:14.545Z,64.60
2018-06-08T19:03:44.899Z,64.80
2018-06-08T19:06:14.382Z,65.00
2018-06-08T19:08:44.295Z,65.10
2018-06-08T19:11:14.379Z,65.30
2018-06-08T19:13:43.973Z,65.60
2018-06-08T19:16:13.584Z,66.10
2018-06-08T19:18:47.467Z,66.10
2018-06-08T19:21:17.677Z,66.50
2018-06-08T19:23:47.857Z,66.90
2018-06-08T19:26:17.933Z,67.10
2018-06-08T19:28:48.129Z,67.50
2018-06-08T19:31:24.267Z,67.60
2018-06-08T19:33:55.341Z,68.00
2018-06-08T19:36:27.838Z,68.50
2018-06-08T19:38:57.581Z,68.90
2018-06-08T19:41:29.627Z,69.20
2018-06-08T19:44:01.573Z,69.50
2018-06-08T19:46:30.942Z,69.90
2018-06-08T19:49:01.388Z,70.30
2018-06-08T19:51:31.114Z,70.80
2018-06-08T19:54:00.775Z,70.80
2018-06-08T19:56:30.314Z,71.20
2018-06-08T19:58:59.986Z,71.10
2018-06-08T20:01:30.351Z,71.40
2018-06-08T20:04:00.131Z,71.50
2018-06-08T20:06:30.574Z,72.50
2018-06-08T20:09:00.849Z,72.20
2018-06-08T20:11:30.548Z,72.20
2018-06-08T20:13:59.823Z,72.40
2018-06-08T20:16:29.771Z,72.70
2018-06-08T20:18:59.120Z,72.90
2018-06-08T20:21:28.272Z,72.90
2018-06-08T20:23:57.847Z,73.10
2018-06-08T20:26:27.047Z,73.40
2018-06-08T20:28:56.499Z,73.80
2018-06-08T20:31:25.912Z,74.10
2018-06-08T20:33:55.122Z,74.20
2018-06-08T20:36:24.462Z,74.20
2018-06-08T20:38:53.679Z,74.50
2018-06-08T20:41:22.861Z,74.70
2018-06-08T20:43:52.086Z,74.80
2018-06-08T20:46:21.181Z,75.40
2018-06-08T20:48:50.441Z,75.40
2018-06-08T20:51:19.815Z,76.50
2018-06-08T20:53:49.112Z,76.60
2018-06-08T20:56:18.367Z,76.80
2018-06-08T20:58:47.471Z,76.90
2018-06-08T21:01:16.694Z,77.20
2018-06-08T21:03:45.979Z,77.40
2018-06-08T21:06:15.201Z,77.50
2018-06-08T21:08:44.417Z,77.70
2018-06-08T21:11:13.713Z,77.80
2018-06-08T21:13:43.072Z,78.40
2018-06-08T21:16:12.572Z,78.30
2018-06-08T21:18:41.986Z,78.70
2018-06-08T21:21:11.435Z,78.60
2018-06-08T21:23:40.958Z,78.60
2018-06-08T21:26:10.307Z,78.60
2018-06-08T21:28:39.758Z,78.70
2018-06-08T21:31:09.199Z,78.90
2018-06-08T21:33:38.466Z,79.00
2018-06-08T21:36:07.956Z,79.10
2018-06-08T21:38:37.302Z,79.30
2018-06-08T21:41:06.566Z,79.70
2018-06-08T21:43:36.262Z,79.90
2018-06-08T21:46:05.655Z,80.10
2018-06-08T21:48:34.991Z,80.30
2018-06-08T21:51:05.385Z,80.40
2018-06-08T21:53:34.814Z,80.50
2018-06-08T21:56:04.231Z,81.10
2018-06-08T21:58:33.458Z,81.10
2018-06-08T22:01:02.882Z,81.60
2018-06-08T22:03:32.187Z,81.70
2018-06-08T22:06:01.748Z,81.80
2018-06-08T22:08:31.052Z,81.70
2018-06-08T22:11:00.220Z,81.80
2018-06-08T22:13:29.621Z,81.70
2018-06-08T22:15:59.135Z,81.80
2018-06-08T22:18:28.943Z,82.60
2018-06-08T22:20:58.390Z,82.00
2018-06-08T22:23:27.864Z,82.00
2018-06-08T22:25:57.278Z,81.70
2018-06-08T22:28:26.575Z,81.70
2018-06-08T22:30:55.854Z,81.70
2018-06-08T22:35:54.242Z,82.00
2018-06-08T22:38:23.621Z,82.20
2018-06-08T22:40:53.005Z,82.60
2018-06-08T22:43:22.432Z,82.60
2018-06-08T22:45:51.710Z,82.90
2018-06-08T22:48:21.339Z,83.40
2018-06-08T22:50:51.715Z,83.90
2018-06-08T22:53:21.227Z,84.10
2018-06-08T22:55:50.901Z,84.50
2018-06-08T22:58:20.247Z,84.80
2018-06-08T23:00:49.981Z,85.00
2018-06-08T23:03:19.709Z,85.30
2018-06-08T23:05:49.156Z,85.30
2018-06-08T23:08:19.362Z,85.50
2018-06-08T23:10:48.840Z,85.80
2018-06-08T23:13:18.280Z,86.10
2018-06-08T23:15:47.765Z,86.10
2018-06-08T23:18:18.045Z,86.30
2018-06-08T23:20:47.401Z,86.40
2018-06-08T23:23:16.824Z,86.30
2018-06-08T23:25:46.285Z,86.20
2018-06-08T23:28:16.709Z,85.80
2018-06-08T23:30:46.150Z,85.00
2018-06-08T23:33:15.559Z,80.50
2018-06-08T23:35:45.655Z,75.10
2018-06-08T23:38:15.188Z,72.00
2018-06-08T23:40:44.818Z,71.40
2018-06-08T23:43:14.402Z,73.60
2018-06-08T23:45:44.688Z,76.70
2018-06-08T23:48:14.918Z,77.00
2018-06-08T23:50:45.232Z,77.30
2018-06-08T23:53:14.967Z,79.50
2018-06-08T23:55:45.010Z,83.50
2018-06-08T23:58:14.816Z,84.20
